Airfield :
LOGIN :

Register | Disclaimer

   EN    FR    IT 

 










Legend :    VFR   Marginal VFR   IFR   Intensive IFR   Very Intensive IFR
Visi :
Ceiling :
>= 8 km
>= 3000ft
5 to 8 km
1000 to 3000 ft
1500m to 5 km
500 to 1000 ft
800 to 1500m
200 to 500 ft
< 800m
< 200 ft
Symbols :   Thunderstorms  Fog  Heavy snow  Heavy precipitations  Wind > 20 kt
SIGMETs :     Misc.  Thunderstorms  Icing  Turbulence  Mountain Waves  Volcanic Ashes







- Airport Elevation : 247 ft
- IATA code : BLL


EKBI - Billund

CURRENT METAR :
  • 222220Z AUTO 21004KT 9999 OVC024/// 09/07 Q1016

EXPIRED METARs :
  • 222150Z AUTO 21004KT 9999 BKN017/// 09/07 Q1016
  • 222120Z AUTO 22004KT 9999 SCT024/// 09/07 Q1017
  • 222050Z AUTO 23006KT 9999 SCT014/// 09/07 Q1016
  • 222020Z AUTO 25007KT 9999 SCT020/// SCT029/// 09/07 Q1016
  • 221950Z AUTO 26007KT 9999 BKN023/// 10/07 Q1016

TAF TAF EKBI
Valid from the 22 at 18:00 until the 23 at 18:00 UTC


221728Z 2218/2318 28012KT 9999 BKN020
PROB40 2222/2307 BKN008
BECMG 2303/2306 22008KT
TEMPO 2310/2315 SCT030TCU
No reported NOTAMs for that airfield.



MET'MAP, your aeronautical weather chart ! - Copyright ORBIFLY December 2007 - Disclaimer

ORBIFLY MET'MAP TEAM :

Programming & Development : Alexandra Zaïnal
Concept & Development : Baudouin d'Aumeries
Co-Development & Prog : Marc-Olivier Méhu
Technical & hardware support : Manuel Goepfert

Contact : metmap@orbifly.com




SOURCES & CREDITS :

   NOAA